Time;durP1;ratioP1;P1;durP2;ratioP2;P2;SDS_P1;SDS_P2;PMS_P1;PMS_P2;Temp;Humidity;BMP_temperature;BMP_pressure;BME280_temperature;BME280_humidity;BME280_pressure;Samples;Min_cycle;Max_cycle;Signal;HPM_P1;HPM_P2
2022/12/14 00:01:23;;;;;;;13.68;5.68;;;;;;;-2.30;77.00;100313.44;5074378;28;20029;-90
2022/12/14 00:03:49;;;;;;;15.32;5.70;;;;;;;-2.25;77.05;100315.66;5056117;28;20123;-89
2022/12/14 00:06:17;;;;;;;11.55;5.68;;;;;;;-2.33;76.90;100306.59;5056388;28;20151;-89
2022/12/14 00:08:44;;;;;;;12.93;5.20;;;;;;;-2.34;77.07;100296.09;5056705;28;20040;-89
2022/12/14 00:11:10;;;;;;;14.68;6.30;;;;;;;-2.38;76.67;100289.41;5056391;28;20029;-90
2022/12/14 00:13:37;;;;;;;15.15;6.43;;;;;;;-2.39;76.99;100287.72;5056604;28;20048;-89
2022/12/14 00:19:27;;;;;;;12.80;5.57;;;;;;;-2.42;76.48;100272.91;5074002;28;20035;-89
2022/12/14 00:21:52;;;;;;;21.15;6.15;;;;;;;-2.39;76.24;100283.25;5056371;28;20039;-89
2022/12/14 00:24:20;;;;;;;13.57;5.80;;;;;;;-2.41;76.63;100287.84;5056153;28;20028;-90
2022/12/14 00:26:45;;;;;;;14.07;5.60;;;;;;;-2.41;76.71;100289.69;5074140;28;20029;-90
2022/12/14 00:29:11;;;;;;;13.03;5.50;;;;;;;-2.43;76.51;100295.16;5056523;28;20112;-89
2022/12/14 00:31:36;;;;;;;15.13;5.70;;;;;;;-2.43;76.40;100300.47;5056058;28;20456;-89
2022/12/14 00:34:02;;;;;;;12.90;5.68;;;;;;;-2.52;76.16;100288.06;5056054;28;20267;-89
2022/12/14 00:36:30;;;;;;;13.80;5.90;;;;;;;-2.47;76.13;100291.97;5074268;28;20031;-89
2022/12/14 00:38:55;;;;;;;14.25;5.90;;;;;;;-2.50;75.92;100292.22;5056905;28;20032;-89
2022/12/14 00:41:20;;;;;;;13.47;5.70;;;;;;;-2.54;76.90;100268.75;5055710;28;20036;-89
2022/12/14 00:43:49;;;;;;;14.63;5.53;;;;;;;-2.53;76.93;100276.56;5055595;28;20032;-90
2022/12/14 00:46:14;;;;;;;12.32;5.47;;;;;;;-2.51;76.52;100273.75;5073916;28;20024;-89
2022/12/14 00:48:41;;;;;;;12.00;5.27;;;;;;;-2.59;76.17;100249.75;5056624;28;20342;-90
2022/12/14 00:51:06;;;;;;;13.13;4.95;;;;;;;-2.63;76.61;100251.84;5056465;28;20024;-89
2022/12/14 00:53:34;;;;;;;12.27;5.63;;;;;;;-2.54;76.90;100263.44;5055971;28;20471;-89
2022/12/14 00:56:05;;;;;;;10.80;5.30;;;;;;;-2.66;77.27;100246.84;5073330;28;20059;-89
2022/12/14 00:58:30;;;;;;;11.18;4.97;;;;;;;-2.63;76.91;100259.81;5055674;28;20090;-89
2022/12/14 01:01:09;;;;;;;12.03;4.67;;;;;;;-2.75;77.37;100243.22;5055452;28;20036;-90
2022/12/14 01:03:34;;;;;;;13.27;5.20;;;;;;;-2.77;77.42;100253.16;5055580;28;20036;-89
2022/12/14 01:06:00;;;;;;;11.17;5.40;;;;;;;-2.80;76.51;100252.59;5038809;28;20035;-89
2022/12/14 01:08:33;;;;;;;12.95;5.47;;;;;;;-2.94;77.35;100244.09;5074112;28;20025;-89
2022/12/14 01:11:09;;;;;;;12.37;5.33;;;;;;;-2.97;76.94;100236.41;5056376;28;20123;-90
2022/12/14 01:13:36;;;;;;;13.13;4.97;;;;;;;-2.96;77.80;100237.28;5055857;28;20333;-89
2022/12/14 01:16:13;;;;;;;12.18;5.15;;;;;;;-3.05;77.33;100221.22;5038965;28;20029;-89
2022/12/14 01:18:41;;;;;;;10.90;5.07;;;;;;;-2.95;77.57;100244.25;5074060;28;20036;-89
2022/12/14 01:21:13;;;;;;;12.38;5.53;;;;;;;-3.06;77.70;100231.97;5055713;28;20024;-89
2022/12/14 01:23:39;;;;;;;13.73;5.37;;;;;;;-3.08;77.77;100226.81;5055700;28;20040;-90
2022/12/14 01:26:05;;;;;;;12.38;5.15;;;;;;;-3.10;77.80;100219.97;5055595;28;20877;-89
2022/12/14 01:28:33;;;;;;;12.43;5.50;;;;;;;-3.07;77.79;100219.66;5056204;28;20022;-89
2022/12/14 01:31:05;;;;;;;18.13;5.57;;;;;;;-3.00;77.44;100231.41;5055648;28;20032;-89
2022/12/14 01:33:31;;;;;;;11.98;5.13;;;;;;;-2.96;78.05;100239.94;5073102;28;20484;-89
2022/12/14 01:36:02;;;;;;;13.20;5.87;;;;;;;-3.03;77.37;100219.28;5055868;28;20037;-89
2022/12/14 01:38:27;;;;;;;12.75;5.38;;;;;;;-2.96;77.46;100227.50;5055208;28;20078;-89
2022/12/14 01:40:56;;;;;;;11.53;5.20;;;;;;;-2.95;77.01;100228.31;5056102;28;20028;-89
2022/12/14 01:43:42;;;;;;;14.95;5.45;;;;;;;-3.03;77.17;100226.38;5055399;28;20047;-89
2022/12/14 01:46:07;;;;;;;13.03;5.53;;;;;;;-3.04;77.57;100225.56;5055018;28;20028;-90
2022/12/14 01:48:33;;;;;;;11.48;4.95;;;;;;;-3.04;76.79;100225.56;5072917;28;20278;-89
2022/12/14 01:50:58;;;;;;;11.70;4.77;;;;;;;-3.04;77.44;100232.66;5055189;28;20032;-89
2022/12/14 01:53:26;;;;;;;14.77;5.30;;;;;;;-3.08;77.82;100220.69;5038036;28;20071;-89
2022/12/14 01:55:55;;;;;;;10.80;5.15;;;;;;;-3.11;77.29;100219.13;5038672;28;20073;-89
2022/12/14 01:58:22;;;;;;;12.73;5.53;;;;;;;-3.05;77.52;100228.34;5038691;28;20143;-89
2022/12/14 02:00:53;;;;;;;12.63;5.13;;;;;;;-3.07;77.13;100228.50;5073150;28;20028;-89
2022/12/14 02:03:28;;;;;;;11.75;4.88;;;;;;;-3.08;77.58;100220.69;5054774;28;20032;-89
2022/12/14 02:06:02;;;;;;;11.87;5.10;;;;;;;-3.18;77.13;100199.44;5055258;28;20153;-89
2022/12/14 02:08:28;;;;;;;12.57;5.20;;;;;;;-3.18;77.17;100204.75;5075344;28;20480;-89
2022/12/14 02:10:55;;;;;;;10.63;5.32;;;;;;;-3.19;77.47;100203.06;5058592;28;20444;-90
2022/12/14 02:13:34;;;;;;;11.52;4.38;;;;;;;-3.12;77.60;100208.66;5058519;28;20028;-89
2022/12/14 02:16:03;;;;;;;10.48;4.90;;;;;;;-3.20;77.55;100198.75;5058246;28;20070;-89
2022/12/14 02:18:30;;;;;;;13.80;4.90;;;;;;;-3.17;78.11;100199.31;5058782;28;20111;-90
2022/12/14 02:21:18;;;;;;;12.05;5.22;;;;;;;-3.15;78.78;100201.81;5058745;28;20480;-89
2022/12/14 02:24:19;;;;;;;11.85;4.82;;;;;;;-3.22;77.65;100201.56;5058648;28;20037;-89
2022/12/14 02:26:56;;;;;;;12.93;5.28;;;;;;;-3.19;78.18;100206.59;5058157;28;20032;-90
2022/12/14 02:29:48;;;;;;;12.43;5.00;;;;;;;-3.24;77.57;100195.53;5058731;28;20086;-89
2022/12/14 02:32:32;;;;;;;11.73;4.80;;;;;;;-3.21;77.73;100200.56;5077010;28;20043;-89
2022/12/14 02:35:28;;;;;;;9.88;4.60;;;;;;;-3.15;78.47;100195.69;5058466;28;20465;-89
2022/12/14 02:38:06;;;;;;;12.70;4.97;;;;;;;-3.15;77.85;100201.81;5058496;28;20066;-89
2022/12/14 02:40:42;;;;;;;14.77;5.28;;;;;;;-3.14;78.29;100202.63;5058643;28;20031;-88
2022/12/14 02:43:17;;;;;;;13.23;5.18;;;;;;;-3.12;77.46;100195.38;5058339;28;20024;-88
2022/12/14 02:45:59;;;;;;;13.37;5.20;;;;;;;-3.12;77.71;100198.88;5076744;28;20033;-89
2022/12/14 02:48:46;;;;;;;15.32;4.90;;;;;;;-3.17;77.14;100188.69;5057588;28;20040;-89
2022/12/14 02:51:30;;;;;;;13.38;4.95;;;;;;;-3.10;77.54;100188.97;5058451;28;20127;-89
2022/12/14 02:54:10;;;;;;;10.75;4.40;;;;;;;-3.08;77.08;100184.34;5076678;28;20095;-89
2022/12/14 02:56:52;;;;;;;11.93;5.05;;;;;;;-3.12;77.54;100169.69;5058542;28;20036;-88
2022/12/14 02:59:18;;;;;;;9.87;4.37;;;;;;;-3.08;77.64;100176.38;5075740;28;20082;-88
2022/12/14 03:01:46;;;;;;;10.65;4.72;;;;;;;-2.95;77.43;100194.66;5075274;28;20074;-88
2022/12/14 03:04:12;;;;;;;10.55;5.10;;;;;;;-2.99;77.22;100182.66;5075294;28;20028;-88
2022/12/14 03:06:39;;;;;;;12.27;5.10;;;;;;;-2.96;76.66;100185.00;5040565;28;20029;-89
2022/12/14 03:09:13;;;;;;;14.57;4.53;;;;;;;-2.92;76.68;100186.41;5075648;28;20111;-89
2022/12/14 03:11:50;;;;;;;11.82;4.70;;;;;;;-2.87;76.59;100193.94;5057687;28;20499;-89
2022/12/14 03:14:39;;;;;;;10.20;4.43;;;;;;;-2.86;76.85;100172.53;5058229;28;20024;-89
2022/12/14 03:17:32;;;;;;;12.30;5.00;;;;;;;-2.74;77.23;100191.78;5058208;28;20040;-89
2022/12/14 03:20:04;;;;;;;12.73;4.78;;;;;;;-2.78;76.44;100169.16;5053606;28;20328;-89
2022/12/14 03:22:48;;;;;;;12.88;4.72;;;;;;;-2.67;76.72;100176.94;5058090;28;20029;-89
2022/12/14 03:25:19;;;;;;;11.10;4.80;;;;;;;-2.70;77.20;100161.31;5057460;28;20036;-88
2022/12/14 03:27:54;;;;;;;12.23;4.70;;;;;;;-2.66;76.00;100169.81;5057884;28;20032;-88
2022/12/14 03:30:22;;;;;;;10.47;4.90;;;;;;;-2.66;76.49;100161.84;5057369;28;20054;-89
2022/12/14 03:32:56;;;;;;;12.00;5.15;;;;;;;-2.70;76.94;100155.16;5057251;28;20361;-88
2022/12/14 03:35:31;;;;;;;11.80;5.35;;;;;;;-2.69;77.27;100141.75;5056970;28;20123;-89
2022/12/14 03:38:10;;;;;;;12.40;5.20;;;;;;;-2.69;76.34;100141.75;5057021;28;20020;-88
2022/12/14 03:40:56;;;;;;;11.85;4.82;;;;;;;-2.75;76.57;100123.72;5057243;28;20428;-89
2022/12/14 03:43:54;;;;;;;12.27;5.40;;;;;;;-2.63;76.21;100142.97;5075398;28;20032;-88
2022/12/14 03:46:38;;;;;;;11.88;4.60;;;;;;;-2.58;75.67;100146.03;5057362;28;20283;-89
2022/12/14 03:49:18;;;;;;;12.23;5.00;;;;;;;-2.69;75.78;100138.25;5056719;28;20035;-88
2022/12/14 03:51:56;;;;;;;10.48;4.85;;;;;;;-2.63;76.05;100144.78;5056836;28;20119;-88
2022/12/14 03:54:55;;;;;;;15.50;5.03;;;;;;;-2.66;76.33;100127.31;5056661;28;20048;-89
2022/12/14 03:57:46;;;;;;;11.37;4.97;;;;;;;-2.63;76.09;100135.00;5056441;28;20039;-88
2022/12/14 04:00:17;;;;;;;11.00;4.85;;;;;;;-2.65;76.38;100129.00;5057465;28;20353;-88
2022/12/14 04:02:53;;;;;;;11.25;4.75;;;;;;;-2.62;76.15;100126.03;5056833;28;20032;-89
2022/12/14 04:05:36;;;;;;;9.70;4.65;;;;;;;-2.62;76.15;100118.06;5075018;28;20134;-88
2022/12/14 04:08:21;;;;;;;12.30;5.18;;;;;;;-2.61;75.73;100122.41;5056900;28;20028;-88
2022/12/14 04:19:45;;;;;;;14.32;5.13;;;;;;;-2.68;76.39;100108.88;5075171;28;20036;-89
2022/12/14 04:22:16;;;;;;;12.60;5.88;;;;;;;-2.70;76.90;100094.91;5074116;28;20033;-89
2022/12/14 04:27:39;;;;;;;10.18;4.53;;;;;;;-2.65;76.88;100091.81;5073931;28;20286;-89
2022/12/14 04:30:07;;;;;;;11.77;5.63;;;;;;;-2.67;76.69;100104.41;5055648;28;20031;-88
2022/12/14 04:32:50;;;;;;;14.35;5.13;;;;;;;-2.63;76.37;100100.47;5074550;28;20029;-88
2022/12/14 04:35:23;;;;;;;11.95;4.97;;;;;;;-2.69;75.83;100093.94;5057147;28;20383;-89
2022/12/14 04:37:57;;;;;;;11.30;5.20;;;;;;;-2.68;76.32;100084.97;5056442;28;20032;-88
2022/12/14 04:40:47;;;;;;;11.68;4.78;;;;;;;-2.67;76.68;100080.53;5062988;28;20287;-88
2022/12/14 04:43:18;;;;;;;10.85;5.20;;;;;;;-2.62;76.37;100082.72;5056342;28;20028;-89
2022/12/14 04:45:54;;;;;;;10.68;5.18;;;;;;;-2.64;75.96;100074.91;5056604;28;20032;-89
2022/12/14 04:48:57;;;;;;;12.38;5.75;;;;;;;-2.66;76.11;100064.44;5056141;28;20033;-88
2022/12/14 04:51:45;;;;;;;14.07;5.67;;;;;;;-2.61;75.55;100077.25;5056729;28;20025;-89
2022/12/14 04:54:23;;;;;;;13.55;5.25;;;;;;;-2.65;77.25;100081.19;5055940;28;20301;-88
2022/12/14 04:57:10;;;;;;;11.68;4.85;;;;;;;-2.77;76.19;100064.63;5074758;28;20037;-88
2022/12/14 04:59:36;;;;;;;12.25;5.13;;;;;;;-2.76;77.01;100058.34;5056713;28;20123;-88
2022/12/14 05:02:26;;;;;;;11.00;4.97;;;;;;;-2.66;77.50;100076.84;5056571;28;20574;-89
2022/12/14 05:05:04;;;;;;;13.23;5.47;;;;;;;-2.62;77.32;100074.75;5074178;28;20461;-88
2022/12/14 05:07:35;;;;;;;13.43;5.88;;;;;;;-2.59;77.38;100077.13;5056245;28;20373;-88
2022/12/14 05:10:18;;;;;;;13.02;5.32;;;;;;;-2.67;77.88;100065.41;5056115;28;20097;-88
2022/12/14 05:12:53;;;;;;;13.27;5.57;;;;;;;-2.67;77.86;100060.09;5055909;28;20373;-88
2022/12/14 05:15:28;;;;;;;11.43;5.45;;;;;;;-2.67;77.45;100056.63;5055272;28;20032;-89
2022/12/14 05:17:54;;;;;;;11.50;5.67;;;;;;;-2.60;78.36;100064.81;5055836;28;20025;-89
2022/12/14 05:20:23;;;;;;;12.70;5.53;;;;;;;-2.61;78.40;100060.47;5055741;28;20340;-89
2022/12/14 05:22:51;;;;;;;14.05;5.35;;;;;;;-2.67;77.66;100046.00;5073083;28;20029;-89
2022/12/14 05:25:16;;;;;;;13.63;5.95;;;;;;;-2.66;78.10;100045.84;5056177;28;20456;-89
2022/12/14 05:27:42;;;;;;;12.80;5.47;;;;;;;-2.57;77.95;100057.41;5056029;28;20106;-89
2022/12/14 05:30:11;;;;;;;11.97;5.10;;;;;;;-2.57;77.11;100062.72;5073624;28;20476;-89
2022/12/14 05:32:36;;;;;;;12.82;5.32;;;;;;;-2.57;77.78;100054.75;5055505;28;20045;-89
2022/12/14 05:35:09;;;;;;;11.70;5.10;;;;;;;-2.67;78.32;100033.53;5038976;28;20528;-88
2022/12/14 05:37:35;;;;;;;14.10;6.07;;;;;;;-2.59;78.59;100045.25;5055264;28;20021;-88
2022/12/14 05:40:00;;;;;;;10.20;5.13;;;;;;;-2.58;78.41;100047.75;5055254;28;20082;-89
2022/12/14 05:42:26;;;;;;;11.63;5.38;;;;;;;-2.63;77.53;100052.66;5057925;28;20032;-89
2022/12/14 05:44:51;;;;;;;12.70;4.90;;;;;;;-2.62;77.85;100058.81;5058851;28;20113;-89
2022/12/14 05:47:17;;;;;;;11.13;4.97;;;;;;;-2.71;78.14;100047.28;5059195;28;20032;-88
2022/12/14 05:49:42;;;;;;;10.73;5.53;;;;;;;-2.69;78.57;100043.50;5058930;28;20024;-89
2022/12/14 05:52:10;;;;;;;13.67;5.63;;;;;;;-2.69;77.97;100043.50;5058802;28;20043;-88
2022/12/14 05:54:36;;;;;;;11.68;5.55;;;;;;;-2.66;78.09;100053.81;5042796;28;20024;-88
2022/12/14 05:57:01;;;;;;;13.87;4.90;;;;;;;-2.57;78.05;100057.41;5058973;28;20028;-88
2022/12/14 05:59:26;;;;;;;12.93;5.37;;;;;;;-2.60;77.27;100046.22;5058870;28;20460;-88
2022/12/14 06:01:52;;;;;;;11.90;5.50;;;;;;;-2.59;78.41;100055.88;5058549;28;20032;-89
2022/12/14 06:04:21;;;;;;;13.63;5.70;;;;;;;-2.66;78.09;100037.88;5058946;28;20024;-89
2022/12/14 06:06:46;;;;;;;13.20;5.40;;;;;;;-2.65;78.29;100036.03;5058623;28;20438;-89
2022/12/14 06:09:16;;;;;;;13.77;4.75;;;;;;;-2.61;78.00;100042.75;5058661;28;20058;-89
2022/12/14 06:11:42;;;;;;;12.77;5.30;;;;;;;-2.60;77.82;100033.75;5058454;28;20021;-89
2022/12/14 06:14:09;;;;;;;11.38;5.28;;;;;;;-2.60;77.96;100023.13;5058834;28;20273;-89
2022/12/14 06:16:40;;;;;;;13.98;5.68;;;;;;;-2.50;78.17;100039.03;5058295;28;20056;-89
2022/12/14 06:19:05;;;;;;;11.52;5.10;;;;;;;-2.43;78.32;100036.59;5076207;28;20472;-88
2022/12/14 06:21:34;;;;;;;14.57;5.30;;;;;;;-2.48;77.86;100021.94;5076661;28;20078;-92
2022/12/14 06:24:02;;;;;;;12.52;5.85;;;;;;;-2.52;77.95;100031.19;5058977;28;20031;-92
2022/12/14 06:26:31;;;;;;;13.13;5.85;;;;;;;-2.55;78.17;100025.38;5059444;28;20459;-93
2022/12/14 06:28:59;;;;;;;11.85;4.95;;;;;;;-2.55;78.39;100030.69;5060004;28;20032;-92
2022/12/14 06:31:30;;;;;;;11.10;5.10;;;;;;;-2.51;78.86;100040.00;5059605;28;20115;-91
2022/12/14 06:34:01;;;;;;;13.05;5.70;;;;;;;-2.53;78.15;100031.34;5058570;28;20271;-89
2022/12/14 06:36:29;;;;;;;13.65;6.00;;;;;;;-2.64;78.48;100029.75;5058048;28;20024;-87
2022/12/14 06:38:59;;;;;;;13.65;6.03;;;;;;;-2.70;79.49;100023.22;5058472;28;20078;-89
2022/12/14 06:41:30;;;;;;;11.60;5.55;;;;;;;-2.56;78.84;100048.41;5058833;28;20028;-90
2022/12/14 06:44:00;;;;;;;15.53;6.50;;;;;;;-2.65;79.14;100034.22;5057776;28;20090;-90
2022/12/14 06:46:26;;;;;;;14.13;6.47;;;;;;;-2.64;78.80;100037.72;5058011;28;20283;-87
2022/12/14 06:48:54;;;;;;;11.90;5.65;;;;;;;-2.59;78.75;100046.06;5057697;28;20032;-88
2022/12/14 06:51:26;;;;;;;13.43;5.40;;;;;;;-2.58;79.19;100049.53;5057897;28;20047;-89
2022/12/14 06:53:56;;;;;;;15.15;6.22;;;;;;;-2.59;79.47;100047.91;5075499;28;20122;-88
2022/12/14 06:56:24;;;;;;;13.15;6.10;;;;;;;-2.60;78.99;100046.22;5058041;28;20407;-88
2022/12/14 06:58:51;;;;;;;13.85;5.95;;;;;;;-2.54;79.16;100059.75;5057490;28;20036;-88
2022/12/14 07:01:22;;;;;;;13.53;5.93;;;;;;;-2.63;78.75;100036.72;5057527;28;20033;-89
2022/12/14 07:03:50;;;;;;;15.15;5.88;;;;;;;-2.59;79.03;100043.41;5076052;28;20320;-88
2022/12/14 07:06:27;;;;;;;17.42;5.97;;;;;;;-2.66;79.65;100050.31;5057163;28;20063;-88
2022/12/14 07:08:59;;;;;;;12.65;6.18;;;;;;;-2.58;79.85;100052.19;5058416;28;20024;-89
2022/12/14 07:11:29;;;;;;;16.73;5.80;;;;;;;-2.62;79.11;100054.34;5075089;28;20025;-88
2022/12/14 07:14:04;;;;;;;12.17;5.80;;;;;;;-2.65;80.02;100052.81;5057798;28;20044;-88
2022/12/14 07:16:32;;;;;;;15.52;6.45;;;;;;;-2.69;79.54;100046.16;5074873;28;20263;-88
2022/12/14 07:19:00;;;;;;;14.88;7.07;;;;;;;-2.69;79.38;100042.63;5057588;28;20024;-89
2022/12/14 07:21:26;;;;;;;15.90;6.57;;;;;;;-2.62;79.92;100056.16;5057027;28;20127;-88
2022/12/14 07:23:57;;;;;;;15.70;6.83;;;;;;;-2.64;79.97;100056.31;5075334;28;20150;-87
2022/12/14 07:26:30;;;;;;;15.98;7.03;;;;;;;-2.69;80.00;100045.28;5056702;28;20032;-88
2022/12/14 07:28:59;;;;;;;17.17;6.93;;;;;;;-2.72;80.02;100043.75;5057290;28;20113;-87
2022/12/14 07:31:27;;;;;;;17.65;7.07;;;;;;;-2.75;79.51;100044.06;5056673;28;20037;-88
2022/12/14 07:33:57;;;;;;;14.43;6.90;;;;;;;-2.74;80.07;100058.19;5056644;28;20032;-88
2022/12/14 07:36:55;;;;;;;;;;;;;;;;;;;;;
2022/12/14 07:39:21;;;;;;;16.63;6.50;;;;;;;-2.81;80.06;100060.59;5058892;28;20032;-88
2022/12/14 07:41:49;;;;;;;15.13;6.97;;;;;;;-2.88;80.06;100056.84;5074397;28;20548;-88
2022/12/14 07:44:15;;;;;;;15.43;6.90;;;;;;;-2.94;80.24;100050.31;5056707;28;20063;-88
2022/12/14 07:46:40;;;;;;;13.63;6.30;;;;;;;-2.93;81.11;100061.78;5056157;28;20047;-87
2022/12/14 07:49:06;;;;;;;13.10;5.63;;;;;;;-2.98;81.32;100061.38;5056939;28;20441;-88
2022/12/14 07:51:37;;;;;;;15.75;6.60;;;;;;;-2.99;80.99;100060.53;5056411;28;20472;-88
2022/12/14 07:54:07;;;;;;;16.60;6.60;;;;;;;-3.07;80.94;100057.78;5056342;28;20483;-87
2022/12/14 07:56:43;;;;;;;17.45;6.65;;;;;;;-3.09;81.66;100063.22;5058218;28;20746;-88
2022/12/14 07:59:18;;;;;;;16.00;6.57;;;;;;;-3.22;81.85;100047.66;5057006;28;20025;-88
2022/12/14 08:01:52;;;;;;;13.30;6.88;;;;;;;-3.17;81.74;100076.41;5057607;28;20087;-90
2022/12/14 08:04:20;;;;;;;16.75;7.00;;;;;;;-3.27;82.38;100070.28;5056908;28;20068;-88
2022/12/14 08:06:48;;;;;;;15.73;6.30;;;;;;;-3.33;82.45;100070.88;5055680;28;20055;-87
2022/12/14 08:09:18;;;;;;;17.77;7.63;;;;;;;-3.34;82.46;100077.97;5056569;28;20266;-87
2022/12/14 08:11:47;;;;;;;20.83;8.13;;;;;;;-3.35;82.21;100071.03;5056558;28;20103;-87
2022/12/14 08:14:18;;;;;;;24.67;7.65;;;;;;;-3.40;82.82;100062.66;5056693;28;20475;-88
2022/12/14 08:16:49;;;;;;;20.08;7.25;;;;;;;-3.39;82.76;100065.16;5074030;28;20028;-88
2022/12/14 08:19:15;;;;;;;18.60;7.97;;;;;;;-3.32;82.67;100072.53;5055828;28;20028;-88
2022/12/14 08:21:46;;;;;;;19.45;7.60;;;;;;;-3.31;82.67;100071.56;5055724;28;20290;-88
2022/12/14 08:24:44;;;;;;;20.30;7.47;;;;;;;-3.19;82.13;100092.47;5056128;28;20073;-88
2022/12/14 08:34:04;;;;;;;15.63;6.67;;;;;;;-3.30;81.98;100083.84;4999130;28;20059;-88
2022/12/14 08:36:38;;;;;;;18.45;7.05;;;;;;;-3.30;81.87;100083.84;5039647;28;20294;-87
2022/12/14 08:39:16;;;;;;;17.88;7.13;;;;;;;-3.25;81.96;100090.41;5073872;28;20029;-86
2022/12/14 08:41:41;;;;;;;14.38;7.10;;;;;;;-3.26;82.06;100091.38;5056107;28;20029;-87
2022/12/14 08:44:15;;;;;;;17.23;7.07;;;;;;;-3.35;81.96;100078.97;5055241;28;20495;-87
2022/12/14 08:46:41;;;;;;;14.88;7.22;;;;;;;-3.38;82.25;100084.56;5056503;28;20313;-87
2022/12/14 08:49:10;;;;;;;20.02;7.20;;;;;;;-3.38;81.88;100081.91;5055621;28;20040;-87
2022/12/14 08:51:38;;;;;;;13.65;6.60;;;;;;;-3.38;81.63;100089.84;5055637;28;20032;-87
2022/12/14 08:54:10;;;;;;;15.70;6.40;;;;;;;-3.37;82.57;100094.19;5055492;28;20055;-87
2022/12/14 08:56:36;;;;;;;17.67;7.65;;;;;;;-3.37;82.57;100096.84;5039890;28;20040;-87
2022/12/14 08:59:04;;;;;;;15.20;6.95;;;;;;;-3.37;82.54;100100.31;5039337;28;20461;-87
2022/12/14 09:01:30;;;;;;;17.85;7.25;;;;;;;-3.45;82.99;100084.31;5039542;28;20033;-87
2022/12/14 09:04:05;;;;;;;17.58;7.03;;;;;;;-3.42;83.08;100091.97;5055807;28;20028;-87
2022/12/14 09:06:48;;;;;;;18.87;7.27;;;;;;;-3.46;82.95;100076.50;5055575;28;20028;-88
2022/12/14 09:09:14;;;;;;;16.80;7.10;;;;;;;-3.44;82.78;100085.13;5055479;28;20290;-88
2022/12/14 09:11:39;;;;;;;18.38;7.38;;;;;;;-3.39;82.85;100093.50;5055505;28;20025;-88
2022/12/14 09:14:05;;;;;;;20.73;7.00;;;;;;;-3.40;82.69;100095.31;5055553;28;20056;-88
2022/12/14 09:16:32;;;;;;;23.73;7.17;;;;;;;-3.36;81.97;100115.28;5057043;28;20068;-88
2022/12/14 09:19:08;;;;;;;;;;;;;;;;;;;;;
2022/12/14 09:21:49;;;;;;;15.35;7.15;;;;;;;-3.39;82.38;100106.78;5078350;28;20040;-89
2022/12/14 09:24:25;;;;;;;18.23;7.53;;;;;;;-3.38;82.04;100119.03;5060359;28;20069;-89
2022/12/14 09:26:56;;;;;;;22.23;8.03;;;;;;;-3.44;81.79;100107.22;5059365;28;20074;-90
2022/12/14 09:29:21;;;;;;;16.98;7.15;;;;;;;-3.38;82.48;100119.91;5059448;28;20286;-88
2022/12/14 09:31:47;;;;;;;21.75;7.13;;;;;;;-3.43;82.18;100111.50;5042347;28;20028;-88
2022/12/14 09:34:23;;;;;;;17.33;6.90;;;;;;;-3.34;81.71;100120.44;5059018;28;20020;-90
2022/12/14 09:37:03;;;;;;;15.95;6.47;;;;;;;-3.28;81.62;100124.34;5059906;28;20471;-88
2022/12/14 09:39:32;;;;;;;14.20;6.63;;;;;;;-3.38;81.05;100111.94;5044080;28;20522;-88
2022/12/14 09:42:38;;;;;;;14.55;6.00;;;;;;;-3.38;81.18;100108.44;5042271;28;20373;-88
2022/12/14 09:45:33;;;;;;;13.75;5.93;;;;;;;-3.28;81.12;100121.69;5058747;28;20030;-88
2022/12/14 09:48:07;;;;;;;15.40;6.55;;;;;;;-3.24;81.49;100101.84;5041484;28;20074;-89
2022/12/14 09:50:40;;;;;;;18.77;6.82;;;;;;;-3.18;82.11;100101.25;5059343;28;20427;-88
2022/12/14 09:53:10;;;;;;;15.17;6.80;;;;;;;-3.20;81.04;100089.97;5059814;28;20052;-88
2022/12/14 09:55:54;;;;;;;12.35;5.88;;;;;;;-3.15;81.75;100102.81;5059175;28;20282;-89
2022/12/14 09:58:31;;;;;;;18.23;6.50;;;;;;;-3.09;80.70;100103.03;5076682;28;20124;-88
2022/12/14 10:01:15;;;;;;;14.63;6.28;;;;;;;-2.96;81.06;100123.97;5058875;28;20059;-88
2022/12/14 10:03:59;;;;;;;12.55;5.82;;;;;;;-2.95;80.32;100124.78;5058655;28;20464;-87
2022/12/14 10:06:39;;;;;;;12.60;5.53;;;;;;;-2.96;81.26;100112.50;5059418;28;20033;-87
2022/12/14 10:09:19;;;;;;;14.15;5.72;;;;;;;-2.85;80.79;100121.13;5078884;28;20618;-88
2022/12/14 10:12:01;;;;;;;14.15;6.22;;;;;;;-2.78;80.31;100117.88;5061657;28;20138;-88
2022/12/14 10:15:04;;;;;;;14.27;6.07;;;;;;;-2.72;80.10;100118.13;5059939;28;20036;-89
2022/12/14 10:17:58;;;;;;;19.30;6.35;;;;;;;-2.63;80.59;100112.91;5009243;28;20041;-88
2022/12/14 10:20:47;;;;;;;14.40;6.40;;;;;;;-2.55;80.34;100103.22;5059289;28;20039;-88
2022/12/14 10:23:18;;;;;;;14.98;5.72;;;;;;;-2.55;79.95;100083.81;5059173;28;20262;-89
2022/12/14 10:25:59;;;;;;;14.23;6.40;;;;;;;-2.46;80.34;100106.81;5060448;28;20040;-88
2022/12/14 10:29:26;;;;;;;12.27;5.65;;;;;;;-2.44;79.73;100096.88;5058648;28;20039;-88
2022/12/14 10:32:29;;;;;;;16.83;6.30;;;;;;;-2.28;79.51;100109.50;5024505;28;20078;-88
2022/12/14 10:35:02;;;;;;;16.27;5.80;;;;;;;-2.28;79.45;100100.69;5058532;28;20035;-88
2022/12/14 10:37:38;;;;;;;12.73;5.72;;;;;;;-2.16;79.32;100107.44;5058618;28;20755;-88
2022/12/14 10:40:34;;;;;;;14.38;6.00;;;;;;;-2.13;79.30;100104.50;5059956;28;20017;-88
2022/12/14 10:43:46;;;;;;;19.65;6.63;;;;;;;-2.00;79.33;100112.09;5078987;28;20021;-88
2022/12/14 10:46:42;;;;;;;19.40;5.70;;;;;;;-1.91;78.33;100119.16;5029752;28;20115;-88
2022/12/14 10:49:42;;;;;;;11.20;5.60;;;;;;;-1.91;78.25;100105.03;5058095;28;20032;-88
2022/12/14 10:52:27;;;;;;;22.10;8.68;;;;;;;-1.78;77.29;100116.94;5075629;28;20278;-88
2022/12/14 10:55:19;;;;;;;14.70;6.40;;;;;;;-1.78;77.06;100106.31;5075325;28;20526;-89
2022/12/14 10:57:52;;;;;;;13.85;5.32;;;;;;;-1.65;76.82;100110.41;5057773;28;20090;-89
2022/12/14 11:00:18;;;;;;;12.90;5.88;;;;;;;-1.63;76.43;100101.28;5058145;28;20028;-89
2022/12/14 11:02:55;;;;;;;12.13;6.00;;;;;;;-1.57;75.84;100097.16;5057608;28;20046;-89
2022/12/14 11:05:43;;;;;;;11.18;5.40;;;;;;;-1.41;76.13;100118.56;5057869;28;20053;-89
2022/12/14 11:08:43;;;;;;;16.88;6.15;;;;;;;-1.36;76.30;100107.44;5057407;28;20032;-88
2022/12/14 11:11:23;;;;;;;13.60;6.32;;;;;;;-1.27;74.86;100111.84;5057685;28;20055;-89
2022/12/14 11:13:52;;;;;;;20.30;6.23;;;;;;;-1.22;74.15;100105.22;5057416;28;20025;-89
2022/12/14 11:16:39;;;;;;;13.82;5.85;;;;;;;-1.07;75.64;100124.94;5074830;28;20464;-89
2022/12/14 11:19:43;;;;;;;11.52;6.05;;;;;;;-1.02;75.45;100106.66;5057269;28;20078;-89
2022/12/14 11:22:13;;;;;;;10.48;5.28;;;;;;;-0.93;74.42;100103.06;5057281;28;20020;-89
2022/12/14 11:25:22;;;;;;;13.75;5.60;;;;;;;-0.83;74.05;100100.25;5057997;28;20115;-89
2022/12/14 11:27:50;;;;;;;10.97;5.60;;;;;;;-0.68;73.10;100113.81;5057552;28;20060;-89
2022/12/14 11:33:55;;;;;;;13.48;5.75;;;;;;;-0.30;72.14;100116.13;4982344;28;20041;-89
2022/12/14 11:36:41;;;;;;;12.80;5.80;;;;;;;-0.04;72.48;100113.34;5057372;28;20020;-90
2022/12/14 11:39:32;;;;;;;;;;;;;;;;;;;;;
2022/12/14 11:42:05;;;;;;;10.83;5.47;;;;;;;5.14;62.44;100090.97;5075907;28;20360;-90
2022/12/14 11:45:11;;;;;;;11.93;5.65;;;;;;;8.70;59.29;100084.91;5057851;28;20031;-89
2022/12/14 11:48:05;;;;;;;11.35;5.50;;;;;;;11.60;45.82;100084.84;5060339;28;20419;-90
2022/12/14 11:51:02;;;;;;;15.13;5.70;;;;;;;13.84;43.22;100076.94;5042430;28;20040;-90
2022/12/14 11:53:42;;;;;;;9.50;5.25;;;;;;;15.62;38.81;100074.19;5074247;28;20131;-90
2022/12/14 11:56:27;;;;;;;10.60;5.60;;;;;;;17.02;35.93;100070.47;5074192;28;20034;-90
2022/12/14 11:59:18;;;;;;;13.15;5.95;;;;;;;18.37;33.93;100077.00;5057657;28;20067;-91
2022/12/14 12:02:27;;;;;;;9.98;5.75;;;;;;;19.57;36.92;100079.09;5043178;28;20036;-91
2022/12/14 12:05:43;;;;;;;9.18;5.60;;;;;;;20.60;36.29;100063.06;5074414;28;20032;-89
2022/12/14 12:08:58;;;;;;;10.80;6.00;;;;;;;21.52;35.11;100060.53;5066434;28;20412;-90
2022/12/14 12:11:48;;;;;;;11.53;6.10;;;;;;;21.87;23.98;100066.41;5025986;28;20066;-90
2022/12/14 12:14:47;;;;;;;;;;;;;;;;;;;;;
2022/12/14 12:18:12;;;;;;;12.20;7.13;;;;;;;22.85;28.21;100067.66;5074897;28;20043;-92
2022/12/14 12:24:37;;;;;;;;;;;;;;;;;;;;;
2022/12/14 12:27:39;;;;;;;;;;;;;;;;;;;;;
2022/12/14 12:30:54;;;;;;;10.70;7.35;;;;;;;25.02;27.33;100067.44;5058848;28;20124;-94
2022/12/14 12:33:54;;;;;;;10.63;7.03;;;;;;;25.32;24.63;100064.72;5026871;28;20032;-93
2022/12/14 12:36:33;;;;;;;;;;;;;;;;;;;;;